Time;durP1;ratioP1;P1;durP2;ratioP2;P2;SDS_P1;SDS_P2;PMS_P1;PMS_P2;Temp;Humidity;BMP_temperature;BMP_pressure;BME280_temperature;BME280_humidity;BME280_pressure;Samples;Min_cycle;Max_cycle;Signal;HPM_P1;HPM_P2
2022/06/22 00:01:01;;;;;;;11.68;6.28;;;15.50;99.90;;;;;;5110472;28;20078;-46
2022/06/22 00:03:28;;;;;;;13.60;6.20;;;15.70;99.90;;;;;;5110949;28;20034;-48
2022/06/22 00:05:55;;;;;;;13.02;6.30;;;15.60;99.90;;;;;;5121575;27;20043;-47
2022/06/22 00:08:26;;;;;;;10.65;6.68;;;15.60;99.90;;;;;;5131076;27;20043;-48
2022/06/22 00:11:02;;;;;;;14.13;6.47;;;15.60;99.90;;;;;;5130883;27;20031;-48
2022/06/22 00:13:29;;;;;;;11.85;6.57;;;15.40;99.90;;;;;;5125209;27;20043;-49
2022/06/22 00:16:01;;;;;;;10.60;6.30;;;15.40;99.90;;;;;;5110586;28;20043;-49
2022/06/22 00:18:34;;;;;;;16.25;6.88;;;15.30;99.90;;;;;;5110241;28;20043;-47
2022/06/22 00:21:04;;;;;;;11.85;7.00;;;15.40;99.90;;;;;;5110532;28;20038;-48
2022/06/22 00:23:30;;;;;;;12.68;6.47;;;15.40;99.90;;;;;;5109980;28;20371;-47
2022/06/22 00:26:26;;;;;;;12.60;6.75;;;15.30;99.90;;;;;;5110256;28;20047;-48
2022/06/22 00:29:00;;;;;;;13.00;6.38;;;15.20;99.90;;;;;;5095870;28;20138;-47
2022/06/22 00:31:49;;;;;;;12.23;6.70;;;15.20;99.90;;;;;;5110640;28;20143;-50
2022/06/22 00:34:23;;;;;;;12.65;6.53;;;15.10;99.90;;;;;;5092440;28;20032;-47
2022/06/22 00:37:03;;;;;;;13.00;6.55;;;15.20;99.90;;;;;;5110702;28;20039;-48
2022/06/22 00:39:28;;;;;;;11.20;6.05;;;15.10;99.90;;;;;;5091614;28;20048;-47
2022/06/22 00:41:58;;;;;;;11.48;5.68;;;15.10;99.90;;;;;;5110477;28;20053;-49
2022/06/22 00:44:31;;;;;;;10.65;6.28;;;15.10;99.90;;;;;;5092030;28;20122;-50
2022/06/22 00:47:04;;;;;;;9.40;5.85;;;15.00;99.90;;;;;;5110167;28;20133;-48
2022/06/22 00:49:31;;;;;;;11.55;6.50;;;15.00;99.90;;;;;;5110532;28;20424;-49
2022/06/22 00:52:04;;;;;;;14.45;6.32;;;14.90;99.90;;;;;;5121447;28;20395;-50
2022/06/22 00:54:33;;;;;;;13.23;6.45;;;14.80;99.90;;;;;;5092071;28;20379;-49
2022/06/22 00:57:13;;;;;;;9.85;6.03;;;14.70;99.90;;;;;;5110546;28;20032;-49
2022/06/22 00:59:52;;;;;;;11.95;6.65;;;14.60;99.90;;;;;;5090748;28;20056;-47
2022/06/22 01:02:32;;;;;;;14.50;6.57;;;14.50;99.90;;;;;;5110085;28;20047;-47
2022/06/22 01:05:19;;;;;;;11.73;6.95;;;14.50;99.90;;;;;;5110225;28;20490;-47
2022/06/22 01:08:11;;;;;;;13.32;7.32;;;14.60;99.90;;;;;;5130572;28;20039;-45
2022/06/22 01:10:51;;;;;;;15.13;7.32;;;14.60;99.90;;;;;;5130505;28;20050;-47
2022/06/22 01:13:42;;;;;;;12.63;7.10;;;14.60;99.90;;;;;;5130489;28;20035;-47
2022/06/22 01:16:30;;;;;;;12.60;7.18;;;14.40;99.90;;;;;;5128436;28;20039;-49
2022/06/22 01:19:19;;;;;;;12.60;7.00;;;14.30;99.90;;;;;;5109884;28;20043;-48
2022/06/22 01:21:54;;;;;;;12.75;7.30;;;14.20;99.90;;;;;;5110320;28;20032;-51
2022/06/22 01:24:52;;;;;;;15.45;6.72;;;14.20;99.90;;;;;;5121702;28;20031;-48
2022/06/22 01:27:28;;;;;;;11.50;6.22;;;14.20;99.90;;;;;;5096754;28;20050;-47
2022/06/22 01:29:56;;;;;;;10.57;6.78;;;14.00;99.90;;;;;;5130275;28;20039;-48
2022/06/22 01:32:35;;;;;;;11.75;7.00;;;14.00;99.90;;;;;;5130451;28;20382;-49
2022/06/22 01:35:09;;;;;;;9.45;7.28;;;13.90;99.90;;;;;;5113840;27;20066;-46
2022/06/22 01:37:34;;;;;;;12.98;7.07;;;13.80;99.90;;;;;;5132853;27;20474;-48
2022/06/22 01:40:09;;;;;;;12.80;7.00;;;13.70;99.90;;;;;;5133947;27;20093;-48
2022/06/22 01:42:43;;;;;;;10.63;7.03;;;13.80;99.90;;;;;;5115987;27;20957;-48
2022/06/22 01:45:23;;;;;;;9.95;6.05;;;13.80;99.90;;;;;;5133817;27;20118;-49
2022/06/22 01:48:03;;;;;;;11.27;6.78;;;13.80;99.90;;;;;;5133915;27;20039;-49
2022/06/22 01:50:49;;;;;;;12.15;7.55;;;13.80;99.90;;;;;;5133676;27;20181;-49
2022/06/22 01:53:30;;;;;;;9.48;6.82;;;13.80;99.90;;;;;;5133803;27;20110;-47
2022/06/22 01:56:01;;;;;;;9.52;7.20;;;13.60;99.90;;;;;;5133042;27;20039;-47
2022/06/22 01:58:55;;;;;;;10.13;7.15;;;13.50;99.90;;;;;;5133490;27;20035;-48
2022/06/22 02:01:35;;;;;;;11.50;7.20;;;13.30;99.90;;;;;;5133486;27;20053;-47
2022/06/22 02:04:17;;;;;;;8.95;6.75;;;13.30;99.90;;;;;;5133545;27;20049;-48
2022/06/22 02:10:13;;;;;;;10.00;7.28;;;13.10;99.90;;;;;;5133276;27;20047;-46
2022/06/22 02:12:47;;;;;;;9.07;6.82;;;13.00;99.90;;;;;;5097778;27;20047;-48
2022/06/22 02:15:25;;;;;;;8.77;7.35;;;13.00;99.90;;;;;;5094595;28;20429;-48
2022/06/22 02:17:52;;;;;;;11.63;7.20;;;12.90;99.90;;;;;;5112840;28;20050;-47
2022/06/22 02:20:18;;;;;;;10.10;7.10;;;12.90;99.90;;;;;;5094650;28;20067;-46
2022/06/22 02:22:46;;;;;;;10.30;7.88;;;12.90;99.90;;;;;;5112796;28;20066;-46
2022/06/22 02:25:14;;;;;;;9.77;7.40;;;13.00;99.90;;;;;;5112209;28;20045;-47
2022/06/22 02:27:40;;;;;;;10.38;7.18;;;12.90;99.90;;;;;;5112602;27;20084;-49
2022/06/22 02:30:06;;;;;;;14.13;7.38;;;12.90;99.90;;;;;;5112630;28;20062;-49
2022/06/22 02:32:37;;;;;;;9.20;7.18;;;12.90;99.90;;;;;;5109837;28;20039;-48
2022/06/22 02:35:05;;;;;;;12.30;7.63;;;12.90;99.90;;;;;;5112110;28;20035;-46
2022/06/22 02:37:38;;;;;;;12.27;7.00;;;12.80;99.90;;;;;;5112137;28;20036;-48
2022/06/22 02:40:08;;;;;;;10.90;7.40;;;12.80;99.90;;;;;;5112370;28;20467;-48
2022/06/22 02:45:18;;;;;;;9.82;7.63;;;12.70;99.90;;;;;;5111884;28;20122;-48
2022/06/22 02:47:58;;;;;;;12.38;7.82;;;12.70;99.90;;;;;;5112379;28;20110;-50
2022/06/22 02:50:41;;;;;;;11.80;8.48;;;12.60;99.90;;;;;;5112100;28;20035;-47
2022/06/22 02:53:28;;;;;;;12.35;8.23;;;12.70;99.90;;;;;;5111902;28;20039;-46
2022/06/22 02:55:56;;;;;;;11.27;7.78;;;12.60;99.90;;;;;;5111389;28;20050;-48
2022/06/22 02:58:21;;;;;;;11.13;7.50;;;12.60;99.90;;;;;;5122241;27;20035;-44
2022/06/22 03:00:47;;;;;;;11.05;8.07;;;12.50;99.90;;;;;;5121216;27;20048;-48
2022/06/22 03:03:16;;;;;;;10.00;7.25;;;12.50;99.90;;;;;;5111674;28;20035;-48
2022/06/22 03:05:45;;;;;;;11.88;8.20;;;12.50;99.90;;;;;;5093323;28;20433;-47
2022/06/22 03:08:12;;;;;;;12.93;8.65;;;12.40;99.90;;;;;;5111613;28;20044;-47
2022/06/22 03:10:50;;;;;;;10.75;8.38;;;12.40;99.90;;;;;;5111782;28;20039;-47
2022/06/22 03:13:24;;;;;;;10.85;8.15;;;12.60;99.90;;;;;;5111447;28;20043;-46
2022/06/22 03:15:51;;;;;;;12.50;9.23;;;12.60;99.90;;;;;;5093230;28;20093;-47
2022/06/22 03:18:23;;;;;;;12.00;8.55;;;12.40;99.90;;;;;;5111686;28;20027;-48
2022/06/22 03:21:04;;;;;;;11.00;8.60;;;12.40;99.90;;;;;;5111464;28;20044;-48
2022/06/22 03:23:41;;;;;;;11.82;8.77;;;12.40;99.90;;;;;;5111465;28;20081;-51
2022/06/22 03:26:16;;;;;;;12.45;8.98;;;12.30;99.90;;;;;;5111144;28;20078;-49
2022/06/22 03:28:51;;;;;;;11.70;8.63;;;12.30;99.90;;;;;;5120912;27;20053;-48
2022/06/22 03:31:23;;;;;;;10.70;8.35;;;12.30;99.90;;;;;;5131847;27;20027;-49
2022/06/22 03:34:17;;;;;;;12.18;9.02;;;12.20;99.90;;;;;;5131808;27;20039;-48
2022/06/22 03:36:52;;;;;;;11.70;8.15;;;12.20;99.90;;;;;;5131942;27;20057;-48
2022/06/22 03:39:20;;;;;;;12.48;8.45;;;12.10;99.90;;;;;;5131593;27;20096;-47
2022/06/22 03:42:06;;;;;;;15.77;8.90;;;12.10;99.90;;;;;;5111021;27;20163;-48
2022/06/22 03:44:56;;;;;;;14.60;9.63;;;12.10;99.90;;;;;;5092196;28;20035;-47
2022/06/22 03:47:37;;;;;;;20.58;11.73;;;12.10;99.90;;;;;;5075986;28;20042;-50
2022/06/22 03:50:32;;;;;;;19.20;11.55;;;12.10;99.90;;;;;;5111116;28;20718;-49
2022/06/22 03:53:01;;;;;;;20.02;13.48;;;12.10;99.90;;;;;;5084313;27;20043;-47
2022/06/22 03:55:35;;;;;;;18.50;12.45;;;12.20;99.90;;;;;;5111722;27;20043;-50
2022/06/22 03:58:05;;;;;;;20.77;13.55;;;12.20;99.90;;;;;;5110057;28;20471;-48
2022/06/22 04:00:33;;;;;;;20.02;12.32;;;12.30;99.90;;;;;;5110297;28;20376;-47
2022/06/22 04:02:59;;;;;;;20.48;12.75;;;12.30;99.90;;;;;;5092268;28;20035;-45
2022/06/22 04:05:30;;;;;;;18.98;13.48;;;12.30;99.90;;;;;;5104602;27;20454;-48
2022/06/22 04:07:57;;;;;;;18.13;13.27;;;12.30;99.90;;;;;;5131260;27;20038;-48
2022/06/22 04:10:52;;;;;;;18.52;13.73;;;12.30;99.90;;;;;;5112739;27;20058;-48
2022/06/22 04:13:27;;;;;;;17.38;13.15;;;12.20;99.90;;;;;;5099475;27;20058;-48
2022/06/22 04:16:13;;;;;;;19.83;13.27;;;12.30;99.90;;;;;;5131166;27;20386;-47
2022/06/22 04:18:52;;;;;;;20.25;12.98;;;12.30;99.90;;;;;;5130978;27;20129;-49
2022/06/22 04:21:31;;;;;;;21.50;13.35;;;12.30;99.90;;;;;;5131222;27;20377;-48
2022/06/22 04:24:14;;;;;;;17.98;13.07;;;12.20;99.90;;;;;;5130934;28;20039;-47
2022/06/22 04:27:03;;;;;;;20.38;12.60;;;12.40;99.90;;;;;;5130764;28;20031;-48
2022/06/22 04:29:41;;;;;;;18.45;13.40;;;12.30;99.90;;;;;;5130804;28;20517;-49
2022/06/22 04:32:50;;;;;;;23.15;13.13;;;12.40;99.90;;;;;;5131138;28;20082;-48
2022/06/22 04:35:33;;;;;;;21.02;13.27;;;12.50;99.90;;;;;;5099152;28;20051;-47
2022/06/22 04:38:08;;;;;;;24.05;13.85;;;12.50;99.90;;;;;;5111109;28;20395;-49
2022/06/22 04:40:44;;;;;;;20.50;14.02;;;12.50;99.90;;;;;;5109682;28;20362;-48
2022/06/22 04:43:10;;;;;;;22.20;13.68;;;12.50;99.90;;;;;;5092214;28;20044;-48
2022/06/22 04:45:42;;;;;;;18.90;13.23;;;12.60;99.90;;;;;;5091610;28;20050;-48
2022/06/22 04:48:46;;;;;;;21.35;13.57;;;12.70;99.90;;;;;;5110348;28;20051;-48
2022/06/22 04:51:18;;;;;;;19.58;13.70;;;12.70;99.90;;;;;;5066260;28;20108;-48
2022/06/22 04:53:50;;;;;;;17.83;13.50;;;12.90;99.90;;;;;;5110388;28;20031;-48
2022/06/22 04:56:26;;;;;;;21.85;14.05;;;12.90;99.90;;;;;;5109629;28;20544;-47
2022/06/22 04:58:54;;;;;;;20.40;13.25;;;13.10;99.90;;;;;;5109737;28;20035;-47
2022/06/22 05:01:36;;;;;;;22.40;13.45;;;13.20;99.90;;;;;;5110412;28;20074;-47
2022/06/22 05:04:07;;;;;;;19.67;12.75;;;13.20;99.90;;;;;;5109953;28;20067;-46
2022/06/22 05:06:45;;;;;;;18.90;12.82;;;13.20;99.90;;;;;;5110229;28;20470;-49
2022/06/22 05:09:20;;;;;;;20.63;13.10;;;13.30;99.90;;;;;;5112543;28;20108;-51
2022/06/22 05:11:47;;;;;;;;;;;13.40;99.90;;;;;;5135243;27;20443;-48
2022/06/22 05:14:20;;;;;;;21.30;12.38;;;13.40;99.90;;;;;;5134157;27;19919;-49
2022/06/22 05:17:05;;;;;;;16.40;11.75;;;13.50;99.90;;;;;;5134486;27;20449;-48
2022/06/22 05:19:47;;;;;;;20.67;12.38;;;13.60;99.90;;;;;;5134301;27;20030;-47
2022/06/22 05:22:15;;;;;;;18.20;11.73;;;13.60;99.90;;;;;;5134618;27;20039;-47
2022/06/22 05:24:45;;;;;;;19.90;12.15;;;13.70;99.90;;;;;;5121262;27;20032;-48
2022/06/22 05:27:20;;;;;;;20.08;12.18;;;13.60;99.90;;;;;;5125340;27;20039;-49
2022/06/22 05:29:51;;;;;;;19.67;12.35;;;13.80;99.90;;;;;;5134066;27;20031;-46
2022/06/22 05:32:37;;;;;;;18.38;11.82;;;13.90;99.90;;;;;;5134468;27;20054;-46
2022/06/22 05:35:09;;;;;;;21.15;12.93;;;13.90;99.90;;;;;;5133984;27;20046;-48
2022/06/22 05:37:39;;;;;;;17.95;12.68;;;14.00;99.90;;;;;;5133950;27;20031;-48
2022/06/22 05:40:06;;;;;;;17.83;12.77;;;14.00;99.90;;;;;;5115163;27;20030;-47
2022/06/22 05:42:32;;;;;;;18.50;12.32;;;14.10;99.90;;;;;;5133668;27;20042;-49
2022/06/22 05:44:59;;;;;;;18.88;13.05;;;14.10;99.90;;;;;;5098220;27;20031;-47
2022/06/22 05:47:32;;;;;;;21.65;13.40;;;14.20;99.90;;;;;;5133978;27;20035;-47
2022/06/22 05:50:04;;;;;;;18.88;12.98;;;14.30;99.90;;;;;;5130900;27;20082;-46
2022/06/22 05:52:47;;;;;;;21.13;13.73;;;14.30;99.90;;;;;;5094895;28;20083;-50
2022/06/22 05:55:39;;;;;;;19.80;13.48;;;14.30;99.90;;;;;;5112863;27;20112;-47
2022/06/22 05:58:17;;;;;;;23.08;14.82;;;14.50;99.90;;;;;;5094658;28;20083;-49
2022/06/22 06:00:47;;;;;;;21.85;12.73;;;14.50;99.90;;;;;;5112513;28;20502;-47
2022/06/22 06:03:24;;;;;;;23.42;14.18;;;14.50;99.90;;;;;;5113183;28;20363;-48
2022/06/22 06:05:52;;;;;;;21.42;13.52;;;14.70;99.90;;;;;;5115691;27;20039;-46
2022/06/22 06:08:41;;;;;;;21.83;13.90;;;14.70;99.90;;;;;;5094327;28;20036;-49
2022/06/22 06:11:16;;;;;;;23.05;13.68;;;14.80;99.90;;;;;;5113031;28;20493;-49
2022/06/22 06:13:52;;;;;;;20.15;14.88;;;14.80;99.90;;;;;;5112803;28;20225;-49
2022/06/22 06:16:24;;;;;;;22.45;14.57;;;14.70;99.90;;;;;;5112962;28;20132;-46
2022/06/22 06:18:52;;;;;;;21.70;13.70;;;14.80;99.90;;;;;;5112814;28;20038;-46
2022/06/22 06:21:21;;;;;;;23.15;14.55;;;15.00;99.90;;;;;;5111514;28;20043;-49
2022/06/22 06:24:11;;;;;;;22.83;13.13;;;15.10;99.90;;;;;;5112636;27;20047;-51
2022/06/22 06:29:58;;;;;;;22.15;13.40;;;15.10;99.90;;;;;;5112113;28;20092;-46
2022/06/22 06:32:33;;;;;;;19.48;12.82;;;15.20;99.90;;;;;;5112378;28;20044;-50
2022/06/22 06:35:16;;;;;;;17.30;12.18;;;15.30;99.90;;;;;;5112172;28;20040;-47
2022/06/22 06:37:59;;;;;;;18.92;13.27;;;15.40;99.90;;;;;;5093933;28;20372;-48
2022/06/22 06:40:34;;;;;;;17.52;12.10;;;15.30;99.90;;;;;;5112165;28;20039;-51
2022/06/22 06:43:41;;;;;;;16.00;11.73;;;15.50;99.90;;;;;;5112370;27;20379;-47
2022/06/22 06:46:38;;;;;;;19.60;12.75;;;15.50;99.90;;;;;;5029148;28;20037;-47
2022/06/22 06:49:23;;;;;;;21.27;12.80;;;15.50;99.90;;;;;;5131452;27;20039;-48
2022/06/22 06:51:57;;;;;;;;;;;15.60;99.90;;;;;;5114534;27;20042;-48
2022/06/22 06:54:30;;;;;;;19.17;12.27;;;15.60;99.90;;;;;;5110324;28;20362;-46
2022/06/22 06:57:08;;;;;;;19.60;11.75;;;15.60;99.90;;;;;;5110961;28;20047;-49
2022/06/22 06:59:35;;;;;;;14.50;11.55;;;15.70;99.90;;;;;;5109479;28;20131;-48
2022/06/22 07:02:11;;;;;;;17.85;11.90;;;15.80;99.90;;;;;;5109910;28;20118;-49
2022/06/22 07:04:36;;;;;;;18.52;11.93;;;15.80;99.90;;;;;;5110567;27;20106;-47
2022/06/22 07:07:19;;;;;;;20.27;12.07;;;15.80;99.90;;;;;;5111992;28;20169;-48
2022/06/22 07:09:47;;;;;;;20.05;13.02;;;15.90;99.90;;;;;;5110295;27;20051;-47
2022/06/22 07:12:28;;;;;;;18.65;11.77;;;16.00;99.90;;;;;;5110764;27;20063;-49
2022/06/22 07:14:55;;;;;;;18.40;12.13;;;16.00;99.90;;;;;;5111665;27;20102;-45
2022/06/22 07:17:22;;;;;;;17.63;11.18;;;16.00;99.90;;;;;;5119312;27;20456;-45
2022/06/22 07:19:50;;;;;;;15.95;10.70;;;16.10;99.90;;;;;;5125596;27;20055;-47
2022/06/22 07:22:22;;;;;;;17.25;10.63;;;16.20;99.90;;;;;;5116191;27;20471;-46
2022/06/22 07:24:52;;;;;;;17.60;10.70;;;16.30;99.90;;;;;;5115490;27;20046;-50
2022/06/22 07:27:39;;;;;;;15.93;10.40;;;16.40;99.90;;;;;;5111920;27;20123;-46
2022/06/22 07:30:16;;;;;;;11.35;8.90;;;16.30;99.90;;;;;;5109927;27;20083;-49
2022/06/22 07:32:57;;;;;;;17.33;9.10;;;16.40;99.90;;;;;;5110681;27;20043;-47
2022/06/22 07:35:31;;;;;;;15.63;9.75;;;16.40;99.90;;;;;;5109972;27;20043;-48
2022/06/22 07:38:22;;;;;;;14.00;9.07;;;16.50;99.90;;;;;;5109967;28;20110;-48
2022/06/22 07:43:33;;;;;;;13.48;9.30;;;16.80;99.90;;;;;;5114227;27;20032;-46
2022/06/22 07:46:00;;;;;;;15.68;10.07;;;16.80;99.90;;;;;;5097053;27;20472;-48
2022/06/22 07:48:29;;;;;;;18.70;10.13;;;16.70;99.90;;;;;;5107450;27;20038;-49
2022/06/22 07:50:58;;;;;;;17.33;9.15;;;16.80;99.90;;;;;;5117523;27;20049;-47
2022/06/22 07:53:45;;;;;;;17.02;9.73;;;16.90;99.90;;;;;;5115951;27;20035;-49
2022/06/22 07:56:29;;;;;;;14.05;8.15;;;16.90;99.90;;;;;;5086065;27;20047;-47
2022/06/22 07:59:01;;;;;;;15.23;8.02;;;17.10;99.90;;;;;;5117640;27;20135;-46
2022/06/22 08:01:32;;;;;;;14.05;7.88;;;17.20;99.90;;;;;;5111979;27;20396;-49
2022/06/22 08:04:05;;;;;;;11.50;7.57;;;17.20;99.90;;;;;;5111210;27;20085;-49
2022/06/22 08:06:40;;;;;;;9.93;6.70;;;17.30;99.90;;;;;;5108085;28;20371;-46
2022/06/22 08:09:14;;;;;;;12.32;6.70;;;17.40;99.90;;;;;;5107039;27;20054;-49
2022/06/22 08:12:05;;;;;;;11.98;6.65;;;17.50;99.90;;;;;;5107785;28;20040;-50
2022/06/22 08:14:44;;;;;;;10.63;6.35;;;17.40;99.90;;;;;;5097866;27;20051;-48
2022/06/22 08:17:40;;;;;;;12.43;6.45;;;17.70;99.90;;;;;;5110267;27;20035;-50
2022/06/22 08:20:08;;;;;;;11.77;7.65;;;17.70;99.90;;;;;;5107919;28;20067;-46
2022/06/22 08:22:34;;;;;;;14.43;8.52;;;17.70;99.90;;;;;;5117085;28;20034;-47
2022/06/22 08:25:03;;;;;;;13.30;7.82;;;17.70;99.90;;;;;;5117576;28;20034;-47
2022/06/22 08:27:29;;;;;;;11.13;5.43;;;17.80;99.90;;;;;;5097649;28;20036;-50
2022/06/22 08:29:57;;;;;;;10.98;5.30;;;18.00;99.90;;;;;;5111328;28;20397;-51
2022/06/22 08:32:36;;;;;;;10.07;4.72;;;18.00;99.90;;;;;;5106701;28;20039;-48
2022/06/22 08:35:24;;;;;;;10.10;4.90;;;18.20;99.90;;;;;;5108992;28;20039;-48
2022/06/22 08:37:57;;;;;;;9.90;3.92;;;18.20;99.90;;;;;;5103645;28;20497;-50
2022/06/22 08:40:45;;;;;;;7.53;3.42;;;18.20;99.90;;;;;;5110234;28;20046;-48
2022/06/22 08:43:23;;;;;;;10.57;3.45;;;18.40;99.90;;;;;;5110381;28;20047;-49
2022/06/22 08:45:55;;;;;;;7.75;3.58;;;18.40;99.90;;;;;;5113331;27;20587;-49
2022/06/22 08:48:57;;;;;;;7.70;2.85;;;18.60;99.90;;;;;;5114300;27;20088;-49
2022/06/22 08:51:32;;;;;;;8.80;3.20;;;18.80;99.90;;;;;;5113564;27;20057;-49
2022/06/22 08:54:16;;;;;;;6.63;2.55;;;18.70;99.90;;;;;;5112929;27;20040;-47
2022/06/22 08:56:47;;;;;;;;;;;18.90;99.90;;;;;;5112908;27;20135;-49
2022/06/22 08:59:30;;;;;;;6.10;2.47;;;18.90;99.90;;;;;;5112897;27;19920;-48
2022/06/22 09:02:17;;;;;;;7.85;2.85;;;19.00;99.90;;;;;;5112935;27;20044;-52
2022/06/22 09:04:57;;;;;;;6.22;3.00;;;19.00;99.90;;;;;;5112325;27;20331;-48
2022/06/22 09:07:37;;;;;;;5.45;2.65;;;19.40;99.90;;;;;;5111382;27;20039;-47
2022/06/22 09:10:48;;;;;;;5.00;1.92;;;19.50;99.90;;;;;;5111476;27;20103;-50
2022/06/22 09:13:32;;;;;;;4.70;1.90;;;19.70;99.90;;;;;;5076650;28;20048;-47
2022/06/22 09:16:06;;;;;;;;;;;19.70;98.30;;;;;;5108973;28;20073;-49
2022/06/22 09:18:50;;;;;;;3.85;1.90;;;20.00;99.30;;;;;;5113438;27;20096;-49
2022/06/22 09:21:27;;;;;;;;;;;20.20;98.80;;;;;;5113290;27;20039;-51
2022/06/22 09:24:11;;;;;;;5.43;1.52;;;20.40;96.50;;;;;;5112108;27;19926;-50
2022/06/22 09:27:10;;;;;;;4.68;1.90;;;20.60;98.70;;;;;;5111024;27;20039;-47
2022/06/22 09:30:00;;;;;;;5.75;1.90;;;20.80;97.40;;;;;;5124231;27;20423;-49
2022/06/22 09:32:50;;;;;;;4.50;1.48;;;21.00;96.30;;;;;;5113542;27;20057;-47
2022/06/22 09:35:38;;;;;;;5.50;1.65;;;21.10;97.50;;;;;;5111511;28;21268;-47
2022/06/22 09:38:21;;;;;;;4.53;1.23;;;21.10;96.10;;;;;;5114900;27;20043;-49
2022/06/22 09:41:20;;;;;;;7.07;1.50;;;21.40;96.20;;;;;;5124381;27;20031;-46
2022/06/22 09:43:58;;;;;;;2.63;1.00;;;21.60;96.10;;;;;;5100919;28;20047;-50
2022/06/22 09:47:00;;;;;;;2.05;0.77;;;21.40;93.80;;;;;;5111668;27;20073;-45
2022/06/22 09:49:44;;;;;;;3.63;0.98;;;21.60;94.00;;;;;;5114684;27;20043;-49
2022/06/22 09:52:26;;;;;;;3.90;1.20;;;21.70;93.80;;;;;;5111241;27;20035;-50
2022/06/22 09:58:28;;;;;;;3.78;1.10;;;21.80;92.50;;;;;;5112062;28;20038;-49
2022/06/22 10:01:15;;;;;;;3.95;1.20;;;21.80;91.10;;;;;;5112396;27;20048;-49
2022/06/22 10:03:44;;;;;;;4.32;0.95;;;21.80;91.50;;;;;;5113085;28;20076;-48
2022/06/22 10:07:00;;;;;;;2.72;0.80;;;22.00;91.90;;;;;;5093918;28;20039;-49
2022/06/22 10:09:43;;;;;;;4.40;0.90;;;22.00;90.90;;;;;;5112809;28;20555;-47
2022/06/22 10:12:44;;;;;;;1.83;0.65;;;22.00;91.00;;;;;;5117975;27;20095;-50
2022/06/22 10:15:28;;;;;;;4.40;1.00;;;22.20;91.50;;;;;;5121591;27;20031;-45
2022/06/22 10:18:14;;;;;;;1.77;0.70;;;22.20;90.20;;;;;;5112712;28;20041;-51
2022/06/22 10:20:57;;;;;;;1.63;0.57;;;22.20;90.50;;;;;;5113663;27;20687;-46
2022/06/22 10:23:51;;;;;;;2.65;0.63;;;22.40;89.00;;;;;;5121215;27;20036;-49
2022/06/22 10:26:42;;;;;;;1.17;0.60;;;22.50;85.20;;;;;;5117509;27;20428;-49
2022/06/22 10:29:39;;;;;;;1.08;0.40;;;22.30;82.90;;;;;;5133182;27;20470;-48
2022/06/22 10:32:27;;;;;;;1.58;0.50;;;22.40;79.40;;;;;;5111462;28;20088;-51
2022/06/22 10:35:00;;;;;;;2.78;0.50;;;22.50;82.60;;;;;;5112037;28;20042;-47
2022/06/22 10:37:48;;;;;;;0.93;0.40;;;22.50;82.50;;;;;;5112453;28;20034;-47
2022/06/22 10:46:19;;;;;;;;;;;22.70;79.70;;;;;;5106320;28;20131;-48
2022/06/22 10:49:13;;;;;;;1.65;0.40;;;22.60;75.30;;;;;;5103907;27;20413;-48
2022/06/22 10:51:51;;;;;;;1.58;0.30;;;22.70;75.10;;;;;;5106420;28;20148;-47
2022/06/22 10:54:25;;;;;;;0.90;0.40;;;22.80;77.90;;;;;;5096876;28;20122;-48
2022/06/22 10:57:05;;;;;;;0.73;0.50;;;22.70;76.30;;;;;;5099916;28;20070;-51
2022/06/22 10:59:42;;;;;;;2.05;0.60;;;22.90;75.70;;;;;;5096816;28;20047;-47
2022/06/22 11:02:38;;;;;;;1.02;0.50;;;22.90;77.00;;;;;;5099694;28;20044;-50
2022/06/22 11:05:13;;;;;;;1.92;0.60;;;23.00;77.20;;;;;;5102016;28;20036;-49
2022/06/22 11:07:54;;;;;;;2.50;0.57;;;23.10;78.20;;;;;;5102145;28;20036;-49
2022/06/22 11:10:30;;;;;;;2.08;0.40;;;23.40;80.90;;;;;;5096990;28;20041;-47
2022/06/22 11:12:59;;;;;;;1.75;0.68;;;23.30;76.70;;;;;;5101993;27;20111;-49
2022/06/22 11:15:40;;;;;;;1.98;0.60;;;23.50;78.20;;;;;;5096809;28;20122;-52
2022/06/22 11:18:24;;;;;;;2.70;0.60;;;23.50;75.40;;;;;;5100070;27;20069;-51
2022/06/22 11:20:59;;;;;;;1.60;0.40;;;23.30;78.20;;;;;;5099889;27;20036;-47
2022/06/22 11:23:52;;;;;;;0.88;0.40;;;23.50;72.80;;;;;;5105518;28;20486;-52
2022/06/22 11:32:36;;;;;;;2.28;0.50;;;23.80;75.60;;;;;;5109847;28;20371;-50
2022/06/22 11:35:20;;;;;;;2.25;0.70;;;23.90;74.60;;;;;;5108486;27;20041;-50
2022/06/22 11:37:55;;;;;;;1.50;0.40;;;24.00;74.60;;;;;;5113254;27;20143;-49
2022/06/22 11:40:33;;;;;;;1.88;0.63;;;24.20;76.20;;;;;;5110214;27;20585;-47
2022/06/22 11:43:43;;;;;;;1.70;0.50;;;24.60;77.70;;;;;;5109999;28;20063;-48
2022/06/22 11:46:32;;;;;;;3.20;0.40;;;24.40;72.90;;;;;;5088609;27;20569;-49
2022/06/22 11:49:13;;;;;;;1.60;0.80;;;24.70;76.40;;;;;;5108979;28;20115;-50
2022/06/22 11:52:05;;;;;;;3.92;0.90;;;24.70;73.50;;;;;;5110347;28;20095;-50
2022/06/22 11:54:52;;;;;;;3.05;0.77;;;24.70;74.50;;;;;;5110964;28;20044;-49
2022/06/22 11:57:46;;;;;;;3.22;0.80;;;24.90;75.70;;;;;;5124573;27;20137;-49
2022/06/22 12:00:23;;;;;;;1.75;0.65;;;24.80;74.10;;;;;;5110726;28;20062;-49
2022/06/22 12:03:15;;;;;;;3.50;0.80;;;25.00;75.80;;;;;;5092233;28;20118;-49
2022/06/22 12:06:27;;;;;;;4.45;0.82;;;25.20;77.40;;;;;;5091590;28;20039;-49
2022/06/22 12:09:11;;;;;;;2.85;0.80;;;25.40;75.30;;;;;;5121702;27;20027;-52
2022/06/22 12:11:55;;;;;;;3.20;0.88;;;25.20;73.90;;;;;;5106131;28;20085;-51
2022/06/22 12:17:32;;;;;;;2.22;0.90;;;25.60;68.70;;;;;;5087302;28;20575;-49
2022/06/22 12:20:35;;;;;;;3.60;1.10;;;25.80;73.90;;;;;;5108892;28;20032;-51
2022/06/22 12:23:10;;;;;;;3.17;0.80;;;25.60;70.10;;;;;;5109683;28;20062;-49
2022/06/22 12:25:51;;;;;;;2.70;1.05;;;26.00;70.70;;;;;;5113318;28;20391;-49
2022/06/22 12:28:37;;;;;;;2.53;0.80;;;25.70;69.40;;;;;;5092557;28;20507;-49
2022/06/22 12:31:19;;;;;;;2.78;0.80;;;26.00;69.80;;;;;;5127829;28;20039;-51
2022/06/22 12:33:59;;;;;;;3.90;0.82;;;26.10;70.30;;;;;;5125198;28;20039;-50
2022/06/22 12:36:37;;;;;;;3.55;0.70;;;26.40;68.80;;;;;;5119008;28;20032;-50
2022/06/22 12:39:24;;;;;;;2.33;0.85;;;26.50;69.00;;;;;;5110610;28;20039;-49
2022/06/22 12:42:09;;;;;;;3.10;0.82;;;26.50;67.60;;;;;;5114449;28;20469;-49
2022/06/22 12:45:05;;;;;;;1.95;0.80;;;26.50;67.50;;;;;;5114241;28;20039;-49
2022/06/22 12:47:55;;;;;;;2.80;0.70;;;26.90;69.80;;;;;;5112667;28;20535;-49
2022/06/22 12:50:33;;;;;;;2.50;0.70;;;26.90;67.30;;;;;;5129580;28;20043;-49
2022/06/22 12:53:26;;;;;;;2.33;0.70;;;26.70;66.40;;;;;;5102071;28;20083;-47
2022/06/22 12:56:09;;;;;;;1.83;0.63;;;26.90;68.00;;;;;;5065957;28;20072;-50
2022/06/22 12:58:52;;;;;;;2.45;0.77;;;27.10;67.00;;;;;;5110539;28;20775;-48
2022/06/22 13:01:18;;;;;;;1.85;0.70;;;27.20;67.80;;;;;;5110518;28;20055;-48
2022/06/22 13:03:50;;;;;;;1.92;0.70;;;27.40;67.70;;;;;;5127928;28;20043;-52
2022/06/22 13:06:16;;;;;;;5.97;0.70;;;27.60;65.20;;;;;;5120171;28;20132;-49
2022/06/22 13:08:43;;;;;;;2.22;0.80;;;27.30;62.90;;;;;;5110356;28;20078;-46
2022/06/22 13:11:19;;;;;;;5.07;1.00;;;27.40;64.50;;;;;;5115831;28;20043;-51
2022/06/22 13:13:53;;;;;;;1.95;0.75;;;27.50;64.60;;;;;;5129166;28;20136;-49
2022/06/22 13:16:28;;;;;;;2.58;0.75;;;27.80;65.00;;;;;;5129933;28;20047;-47
2022/06/22 13:19:21;;;;;;;3.45;1.10;;;28.00;63.50;;;;;;5111586;28;20071;-51
2022/06/22 13:22:04;;;;;;;2.80;1.00;;;28.30;66.00;;;;;;5109011;28;20160;-48
2022/06/22 13:24:48;;;;;;;2.85;1.10;;;28.10;64.80;;;;;;5093906;28;20036;-48
2022/06/22 13:27:23;;;;;;;3.72;0.90;;;27.80;62.90;;;;;;5130208;28;20127;-51
2022/06/22 13:30:15;;;;;;;2.97;0.93;;;28.00;65.00;;;;;;5128182;27;20113;-47
2022/06/22 13:32:45;;;;;;;3.88;1.10;;;28.20;65.40;;;;;;5134155;27;20081;-51
2022/06/22 13:35:33;;;;;;;2.92;0.80;;;28.50;64.70;;;;;;5093363;28;20058;-48
2022/06/22 13:38:13;;;;;;;3.88;0.98;;;28.80;64.80;;;;;;5104379;27;20134;-50
2022/06/22 13:40:57;;;;;;;2.47;1.00;;;28.60;63.50;;;;;;5110841;27;20035;-48
2022/06/22 13:43:36;;;;;;;;;;;28.90;63.40;;;;;;5106395;28;20118;-51
2022/06/22 13:46:07;;;;;;;4.80;1.20;;;28.80;63.30;;;;;;5107050;28;19968;-51
2022/06/22 13:48:44;;;;;;;4.32;1.15;;;28.80;65.20;;;;;;5108863;27;20126;-51
2022/06/22 13:51:21;;;;;;;5.30;1.48;;;29.10;62.80;;;;;;5108293;27;20032;-51
2022/06/22 13:54:26;;;;;;;3.88;1.05;;;29.10;64.50;;;;;;5110921;27;20051;-46
2022/06/22 13:57:13;;;;;;;4.40;1.08;;;29.10;62.80;;;;;;5110767;27;20490;-52
2022/06/22 13:59:48;;;;;;;5.03;1.17;;;29.00;64.20;;;;;;5108742;27;20067;-52
2022/06/22 14:02:48;;;;;;;4.53;1.10;;;29.30;62.90;;;;;;5110623;28;20043;-48
2022/06/22 14:05:26;;;;;;;2.70;1.10;;;29.50;63.40;;;;;;5106212;27;20401;-49
2022/06/22 14:08:30;;;;;;;2.67;0.88;;;29.50;63.30;;;;;;5107265;27;20120;-49
2022/06/22 14:11:05;;;;;;;5.28;1.30;;;29.80;64.30;;;;;;5101350;27;20071;-52